sensor_id;sensor_type;location;lat;lon;timestamp;pressure;altitude;pressure_sealevel;temperature;humidity
77165;BME280;66140;50.280;18.660;2023-04-24T04:01:35;97940.22;;;11.39;67.91
77165;BME280;66140;50.280;18.660;2023-04-24T04:04:05;97938.41;;;11.39;69.24
77165;BME280;66140;50.280;18.660;2023-04-24T04:06:30;97934.63;;;11.42;68.16
77165;BME280;66140;50.280;18.660;2023-04-24T04:08:56;97935.47;;;11.42;67.53
77165;BME280;66140;50.280;18.660;2023-04-24T04:11:22;97937.47;;;11.50;68.00
77165;BME280;66140;50.280;18.660;2023-04-24T04:13:47;97933.84;;;11.51;68.96
77165;BME280;66140;50.280;18.660;2023-04-24T04:16:13;97932.56;;;11.45;68.54
77165;BME280;66140;50.280;18.660;2023-04-24T04:18:39;97927.69;;;11.50;67.02
77165;BME280;66140;50.280;18.660;2023-04-24T04:21:04;97940.63;;;11.64;66.97
77165;BME280;66140;50.280;18.660;2023-04-24T04:23:30;97923.97;;;11.62;67.61
77165;BME280;66140;50.280;18.660;2023-04-24T04:25:55;97929.72;;;11.68;67.13
77165;BME280;66140;50.280;18.660;2023-04-24T04:28:21;97930.91;;;11.75;67.84
77165;BME280;66140;50.280;18.660;2023-04-24T04:30:47;97920.69;;;11.80;66.03
77165;BME280;66140;50.280;18.660;2023-04-24T04:33:12;97943.53;;;11.92;66.66
77165;BME280;66140;50.280;18.660;2023-04-24T04:35:39;97931.50;;;11.88;68.02
77165;BME280;66140;50.280;18.660;2023-04-24T04:38:06;97920.16;;;11.86;67.83
77165;BME280;66140;50.280;18.660;2023-04-24T04:40:34;97938.69;;;11.97;66.70
77165;BME280;66140;50.280;18.660;2023-04-24T04:43:01;97934.91;;;11.99;66.62
77165;BME280;66140;50.280;18.660;2023-04-24T04:45:28;97916.72;;;11.95;67.58
77165;BME280;66140;50.280;18.660;2023-04-24T04:47:54;97917.56;;;11.95;67.13
77165;BME280;66140;50.280;18.660;2023-04-24T04:50:26;97927.06;;;11.98;66.54
77165;BME280;66140;50.280;18.660;2023-04-24T04:52:55;97916.16;;;12.01;67.44
77165;BME280;66140;50.280;18.660;2023-04-24T04:55:24;97934.41;;;12.15;66.43
77165;BME280;66140;50.280;18.660;2023-04-24T04:57:51;97932.16;;;12.20;66.15
77165;BME280;66140;50.280;18.660;2023-04-24T05:00:18;97934.53;;;12.23;67.03
77165;BME280;66140;50.280;18.660;2023-04-24T05:02:44;97922.94;;;12.24;64.82
77165;BME280;66140;50.280;18.660;2023-04-24T05:05:10;97925.19;;;12.29;65.48
77165;BME280;66140;50.280;18.660;2023-04-24T05:07:35;97924.66;;;12.35;64.90
77165;BME280;66140;50.280;18.660;2023-04-24T05:10:01;97928.88;;;12.47;63.95
77165;BME280;66140;50.280;18.660;2023-04-24T05:12:27;97928.84;;;12.57;64.74
77165;BME280;66140;50.280;18.660;2023-04-24T05:14:52;97937.53;;;12.68;63.35
77165;BME280;66140;50.280;18.660;2023-04-24T05:17:18;97920.47;;;12.71;63.40
77165;BME280;66140;50.280;18.660;2023-04-24T05:19:44;97922.97;;;12.82;62.96
77165;BME280;66140;50.280;18.660;2023-04-24T05:22:10;97938.09;;;13.01;62.92
77165;BME280;66140;50.280;18.660;2023-04-24T05:24:37;97926.03;;;13.06;62.56
77165;BME280;66140;50.280;18.660;2023-04-24T05:27:04;97916.81;;;13.10;61.40
77165;BME280;66140;50.280;18.660;2023-04-24T05:29:30;97918.75;;;13.28;61.66
77165;BME280;66140;50.280;18.660;2023-04-24T05:31:59;97931.31;;;13.45;60.31
77165;BME280;66140;50.280;18.660;2023-04-24T05:34:25;97933.53;;;13.59;61.60
77165;BME280;66140;50.280;18.660;2023-04-24T05:36:50;97926.91;;;13.73;60.21
77165;BME280;66140;50.280;18.660;2023-04-24T05:39:16;97926.47;;;14.04;57.30
77165;BME280;66140;50.280;18.660;2023-04-24T05:41:42;97927.06;;;14.26;59.57
77165;BME280;66140;50.280;18.660;2023-04-24T05:44:08;97911.22;;;14.52;58.55
77165;BME280;66140;50.280;18.660;2023-04-24T05:46:57;97913.56;;;14.90;56.60
77165;BME280;66140;50.280;18.660;2023-04-24T05:49:43;97911.03;;;15.32;54.17
77165;BME280;66140;50.280;18.660;2023-04-24T05:52:16;97916.31;;;15.68;54.54
77165;BME280;66140;50.280;18.660;2023-04-24T05:54:42;97910.75;;;15.95;52.68
77165;BME280;66140;50.280;18.660;2023-04-24T05:57:07;97896.13;;;16.15;52.19
77165;BME280;66140;50.280;18.660;2023-04-24T05:59:36;97899.53;;;16.25;49.62
77165;BME280;66140;50.280;18.660;2023-04-24T06:02:01;97913.25;;;16.30;50.31
77165;BME280;66140;50.280;18.660;2023-04-24T06:04:31;97917.25;;;16.34;50.18
77165;BME280;66140;50.280;18.660;2023-04-24T06:06:57;97905.56;;;16.35;50.48
77165;BME280;66140;50.280;18.660;2023-04-24T06:09:22;97907.75;;;16.40;47.84
77165;BME280;66140;50.280;18.660;2023-04-24T06:11:51;97914.66;;;16.51;49.84
77165;BME280;66140;50.280;18.660;2023-04-24T06:14:20;97911.03;;;16.68;49.73
77165;BME280;66140;50.280;18.660;2023-04-24T06:16:50;97914.06;;;16.89;47.82
77165;BME280;66140;50.280;18.660;2023-04-24T06:19:16;97902.00;;;16.85;49.16
77165;BME280;66140;50.280;18.660;2023-04-24T06:21:41;97905.34;;;16.87;46.33
77165;BME280;66140;50.280;18.660;2023-04-24T06:24:07;97904.34;;;17.04;45.71
77165;BME280;66140;50.280;18.660;2023-04-24T06:26:32;97901.63;;;17.61;45.80
77165;BME280;66140;50.280;18.660;2023-04-24T06:28:58;97896.31;;;18.31;44.32
77165;BME280;66140;50.280;18.660;2023-04-24T06:31:24;97889.44;;;19.13;41.19
77165;BME280;66140;50.280;18.660;2023-04-24T06:33:49;97900.38;;;19.49;41.70
77165;BME280;66140;50.280;18.660;2023-04-24T06:36:15;97899.03;;;19.97;41.95
77165;BME280;66140;50.280;18.660;2023-04-24T06:38:41;97879.59;;;20.67;38.24
77165;BME280;66140;50.280;18.660;2023-04-24T06:41:06;97882.16;;;20.75;36.93
77165;BME280;66140;50.280;18.660;2023-04-24T06:43:32;97886.00;;;20.87;39.41
77165;BME280;66140;50.280;18.660;2023-04-24T06:45:59;97884.53;;;21.27;40.07
77165;BME280;66140;50.280;18.660;2023-04-24T06:48:38;97894.88;;;21.02;38.38
77165;BME280;66140;50.280;18.660;2023-04-24T06:51:04;97886.38;;;20.63;38.30
77165;BME280;66140;50.280;18.660;2023-04-24T06:53:38;97884.56;;;20.49;40.48
77165;BME280;66140;50.280;18.660;2023-04-24T06:56:09;97891.09;;;20.39;39.12
77165;BME280;66140;50.280;18.660;2023-04-24T06:58:35;97882.56;;;20.21;38.23
77165;BME280;66140;50.280;18.660;2023-04-24T07:01:00;97883.69;;;19.97;36.49
77165;BME280;66140;50.280;18.660;2023-04-24T07:03:25;97888.03;;;20.13;34.96
77165;BME280;66140;50.280;18.660;2023-04-24T07:05:54;97890.81;;;20.20;35.44
77165;BME280;66140;50.280;18.660;2023-04-24T07:08:20;97878.84;;;20.22;34.90
77165;BME280;66140;50.280;18.660;2023-04-24T07:10:49;97876.53;;;20.05;36.94
77165;BME280;66140;50.280;18.660;2023-04-24T07:13:19;97879.59;;;20.16;36.13
77165;BME280;66140;50.280;18.660;2023-04-24T07:15:44;97881.16;;;20.40;34.83
77165;BME280;66140;50.280;18.660;2023-04-24T07:18:28;97867.84;;;20.53;34.32
77165;BME280;66140;50.280;18.660;2023-04-24T07:20:56;97884.19;;;20.52;34.85
77165;BME280;66140;50.280;18.660;2023-04-24T07:23:22;97876.47;;;20.49;34.35
77165;BME280;66140;50.280;18.660;2023-04-24T07:25:47;97878.47;;;20.40;34.54
77165;BME280;66140;50.280;18.660;2023-04-24T07:28:13;97880.47;;;20.53;34.72
77165;BME280;66140;50.280;18.660;2023-04-24T07:30:38;97873.69;;;20.78;35.27
77165;BME280;66140;50.280;18.660;2023-04-24T07:33:04;97869.13;;;21.21;35.29
77165;BME280;66140;50.280;18.660;2023-04-24T07:35:29;97873.47;;;21.43;34.81
77165;BME280;66140;50.280;18.660;2023-04-24T07:37:55;97878.28;;;21.76;34.75
77165;BME280;66140;50.280;18.660;2023-04-24T07:40:21;97871.53;;;21.65;33.96
77165;BME280;66140;50.280;18.660;2023-04-24T07:42:47;97869.41;;;21.88;33.98
77165;BME280;66140;50.280;18.660;2023-04-24T07:45:14;97874.72;;;22.10;33.33
77165;BME280;66140;50.280;18.660;2023-04-24T07:47:40;97876.84;;;22.14;32.56
77165;BME280;66140;50.280;18.660;2023-04-24T07:50:09;97871.28;;;22.29;32.53
77165;BME280;66140;50.280;18.660;2023-04-24T07:52:35;97856.59;;;22.51;31.61
77165;BME280;66140;50.280;18.660;2023-04-24T07:55:02;97858.31;;;22.65;31.60
77165;BME280;66140;50.280;18.660;2023-04-24T07:57:28;97855.31;;;22.34;32.82
77165;BME280;66140;50.280;18.660;2023-04-24T07:59:54;97851.81;;;21.99;34.72
77165;BME280;66140;50.280;18.660;2023-04-24T08:02:20;97856.97;;;21.94;34.23
77165;BME280;66140;50.280;18.660;2023-04-24T08:04:51;97855.25;;;21.86;32.92
77165;BME280;66140;50.280;18.660;2023-04-24T08:07:16;97854.16;;;21.74;34.59
77165;BME280;66140;50.280;18.660;2023-04-24T08:09:42;97850.69;;;21.52;34.61
77165;BME280;66140;50.280;18.660;2023-04-24T08:12:07;97856.22;;;21.72;33.51
77165;BME280;66140;50.280;18.660;2023-04-24T08:14:33;97855.09;;;21.94;35.08
77165;BME280;66140;50.280;18.660;2023-04-24T08:16:58;97850.09;;;21.91;35.05
77165;BME280;66140;50.280;18.660;2023-04-24T08:19:25;97852.09;;;21.83;33.92
77165;BME280;66140;50.280;18.660;2023-04-24T08:21:51;97842.88;;;21.64;35.45
77165;BME280;66140;50.280;18.660;2023-04-24T08:24:16;97847.88;;;21.67;34.69
77165;BME280;66140;50.280;18.660;2023-04-24T08:26:41;97850.63;;;21.74;33.52
77165;BME280;66140;50.280;18.660;2023-04-24T08:29:07;97848.25;;;21.64;34.43
77165;BME280;66140;50.280;18.660;2023-04-24T08:31:33;97837.41;;;21.57;35.60
77165;BME280;66140;50.280;18.660;2023-04-24T08:33:58;97842.75;;;21.44;34.94
77165;BME280;66140;50.280;18.660;2023-04-24T08:36:25;97851.16;;;21.56;36.30
77165;BME280;66140;50.280;18.660;2023-04-24T08:38:51;97849.56;;;21.68;33.96
77165;BME280;66140;50.280;18.660;2023-04-24T08:41:17;97839.63;;;21.75;33.81
77165;BME280;66140;50.280;18.660;2023-04-24T08:43:45;97831.56;;;21.82;34.62
77165;BME280;66140;50.280;18.660;2023-04-24T08:46:15;97843.47;;;21.94;33.99
77165;BME280;66140;50.280;18.660;2023-04-24T08:48:41;97837.19;;;21.87;33.75
77165;BME280;66140;50.280;18.660;2023-04-24T08:51:08;97839.22;;;21.78;33.39
77165;BME280;66140;50.280;18.660;2023-04-24T08:53:34;97839.13;;;21.65;32.83
77165;BME280;66140;50.280;18.660;2023-04-24T08:56:00;97833.47;;;21.26;35.33
77165;BME280;66140;50.280;18.660;2023-04-24T08:58:27;97837.41;;;21.23;35.38
77165;BME280;66140;50.280;18.660;2023-04-24T09:00:56;97835.97;;;21.27;35.17
77165;BME280;66140;50.280;18.660;2023-04-24T09:03:27;97828.56;;;21.36;33.59
77165;BME280;66140;50.280;18.660;2023-04-24T09:05:53;97824.91;;;21.43;35.58
77165;BME280;66140;50.280;18.660;2023-04-24T09:08:20;97824.97;;;21.56;34.28
77165;BME280;66140;50.280;18.660;2023-04-24T09:10:49;97825.09;;;21.42;35.71
77165;BME280;66140;50.280;18.660;2023-04-24T09:13:14;97825.38;;;21.53;35.97
77165;BME280;66140;50.280;18.660;2023-04-24T09:15:40;97831.25;;;21.70;34.67
77165;BME280;66140;50.280;18.660;2023-04-24T09:18:06;97812.38;;;21.70;34.88
77165;BME280;66140;50.280;18.660;2023-04-24T09:20:32;97826.31;;;21.74;34.03
77165;BME280;66140;50.280;18.660;2023-04-24T09:22:58;97822.53;;;21.62;34.68
77165;BME280;66140;50.280;18.660;2023-04-24T09:25:34;97830.75;;;21.53;34.59
77165;BME280;66140;50.280;18.660;2023-04-24T09:28:04;97824.22;;;21.69;36.26
77165;BME280;66140;50.280;18.660;2023-04-24T09:30:31;97825.47;;;21.73;37.43
77165;BME280;66140;50.280;18.660;2023-04-24T09:33:15;97814.16;;;21.50;37.46
77165;BME280;66140;50.280;18.660;2023-04-24T09:35:42;97824.09;;;21.49;35.69
77165;BME280;66140;50.280;18.660;2023-04-24T09:38:08;97809.78;;;21.49;35.43
77165;BME280;66140;50.280;18.660;2023-04-24T09:40:35;97817.66;;;21.85;36.02
77165;BME280;66140;50.280;18.660;2023-04-24T09:43:01;97809.28;;;22.08;34.95
77165;BME280;66140;50.280;18.660;2023-04-24T09:45:31;97812.06;;;22.40;35.30
77165;BME280;66140;50.280;18.660;2023-04-24T09:48:00;97803.38;;;22.58;34.56
77165;BME280;66140;50.280;18.660;2023-04-24T09:50:26;97798.25;;;22.76;31.75
77165;BME280;66140;50.280;18.660;2023-04-24T09:52:59;97805.06;;;22.72;32.07
77165;BME280;66140;50.280;18.660;2023-04-24T09:55:27;97795.09;;;22.79;33.27
77165;BME280;66140;50.280;18.660;2023-04-24T09:57:55;97805.88;;;22.66;33.27
77165;BME280;66140;50.280;18.660;2023-04-24T10:00:27;97800.47;;;22.47;33.55
77165;BME280;66140;50.280;18.660;2023-04-24T10:03:04;97801.28;;;22.54;33.07
77165;BME280;66140;50.280;18.660;2023-04-24T10:05:31;97792.06;;;22.22;36.18
77165;BME280;66140;50.280;18.660;2023-04-24T10:08:11;97793.13;;;22.21;33.92
77165;BME280;66140;50.280;18.660;2023-04-24T10:10:44;97790.41;;;22.21;35.01
77165;BME280;66140;50.280;18.660;2023-04-24T10:13:11;97794.16;;;22.20;34.78
77165;BME280;66140;50.280;18.660;2023-04-24T10:15:38;97782.25;;;22.08;33.31
77165;BME280;66140;50.280;18.660;2023-04-24T10:18:08;97790.72;;;21.98;34.42
77165;BME280;66140;50.280;18.660;2023-04-24T10:20:36;97806.97;;;22.05;34.79
77165;BME280;66140;50.280;18.660;2023-04-24T10:23:03;97799.06;;;22.10;34.31
77165;BME280;66140;50.280;18.660;2023-04-24T10:25:45;97791.22;;;22.15;34.51
77165;BME280;66140;50.280;18.660;2023-04-24T10:28:11;97797.88;;;22.19;35.02
77165;BME280;66140;50.280;18.660;2023-04-24T10:30:42;97792.44;;;22.06;34.18
77165;BME280;66140;50.280;18.660;2023-04-24T10:33:08;97793.53;;;21.83;35.72
77165;BME280;66140;50.280;18.660;2023-04-24T10:35:37;97788.78;;;21.44;36.06
77165;BME280;66140;50.280;18.660;2023-04-24T10:38:16;97803.81;;;21.04;36.85
77165;BME280;66140;50.280;18.660;2023-04-24T10:40:43;97803.19;;;20.81;37.30
77165;BME280;66140;50.280;18.660;2023-04-24T10:43:09;97805.28;;;20.79;37.62
77165;BME280;66140;50.280;18.660;2023-04-24T10:45:37;97798.09;;;20.65;40.23
77165;BME280;66140;50.280;18.660;2023-04-24T10:48:04;97808.72;;;20.52;39.53
77165;BME280;66140;50.280;18.660;2023-04-24T10:50:53;97803.72;;;20.49;38.49
77165;BME280;66140;50.280;18.660;2023-04-24T10:53:24;97810.84;;;20.20;38.75
77165;BME280;66140;50.280;18.660;2023-04-24T10:56:06;97805.84;;;20.17;39.00
77165;BME280;66140;50.280;18.660;2023-04-24T10:58:40;97812.31;;;19.87;40.50
77165;BME280;66140;50.280;18.660;2023-04-24T11:01:06;97813.63;;;19.76;42.10
77165;BME280;66140;50.280;18.660;2023-04-24T11:03:34;97811.47;;;19.72;42.34
77165;BME280;66140;50.280;18.660;2023-04-24T11:06:07;97804.53;;;19.63;42.10
77165;BME280;66140;50.280;18.660;2023-04-24T11:08:44;97811.34;;;19.58;43.03
77165;BME280;66140;50.280;18.660;2023-04-24T11:11:15;97810.84;;;19.70;42.31
77165;BME280;66140;50.280;18.660;2023-04-24T11:19:02;97813.13;;;20.02;41.74
77165;BME280;66140;50.280;18.660;2023-04-24T11:21:42;97818.38;;;20.10;41.19
77165;BME280;66140;50.280;18.660;2023-04-24T11:29:43;97816.16;;;20.14;41.91
77165;BME280;66140;50.280;18.660;2023-04-24T11:32:28;97814.66;;;19.90;42.53
77165;BME280;66140;50.280;18.660;2023-04-24T11:35:02;97823.34;;;19.92;42.73
77165;BME280;66140;50.280;18.660;2023-04-24T11:37:41;97821.66;;;19.91;41.41
77165;BME280;66140;50.280;18.660;2023-04-24T11:40:09;97817.03;;;19.85;43.37
77165;BME280;66140;50.280;18.660;2023-04-24T11:42:40;97821.88;;;19.75;41.29
77165;BME280;66140;50.280;18.660;2023-04-24T11:45:11;97826.25;;;19.61;43.40
77165;BME280;66140;50.280;18.660;2023-04-24T11:47:37;97830.53;;;19.55;43.02
77165;BME280;66140;50.280;18.660;2023-04-24T11:50:04;97831.63;;;19.61;43.40
77165;BME280;66140;50.280;18.660;2023-04-24T11:52:30;97823.91;;;19.73;42.04
77165;BME280;66140;50.280;18.660;2023-04-24T11:54:56;97819.00;;;19.76;41.44
77165;BME280;66140;50.280;18.660;2023-04-24T11:57:23;97815.75;;;19.81;41.27
77165;BME280;66140;50.280;18.660;2023-04-24T11:59:49;97825.06;;;19.64;41.10
77165;BME280;66140;50.280;18.660;2023-04-24T12:02:25;97817.50;;;19.44;40.55
77165;BME280;66140;50.280;18.660;2023-04-24T12:04:52;97824.47;;;19.39;41.11
77165;BME280;66140;50.280;18.660;2023-04-24T12:07:17;97824.16;;;19.19;41.76
77165;BME280;66140;50.280;18.660;2023-04-24T12:09:54;97819.94;;;19.02;42.89
77165;BME280;66140;50.280;18.660;2023-04-24T12:12:24;97816.41;;;18.87;42.94
77165;BME280;66140;50.280;18.660;2023-04-24T12:14:58;97817.47;;;18.77;43.44
77165;BME280;66140;50.280;18.660;2023-04-24T12:17:26;97814.97;;;18.76;43.67
77165;BME280;66140;50.280;18.660;2023-04-24T12:19:51;97823.22;;;18.74;43.89
77165;BME280;66140;50.280;18.660;2023-04-24T12:22:17;97820.59;;;18.66;44.72
77165;BME280;66140;50.280;18.660;2023-04-24T12:25:02;97828.34;;;18.61;43.97
77165;BME280;66140;50.280;18.660;2023-04-24T12:27:30;97821.16;;;18.54;44.04
77165;BME280;66140;50.280;18.660;2023-04-24T12:29:57;97826.69;;;18.52;44.73
77165;BME280;66140;50.280;18.660;2023-04-24T12:32:23;97820.66;;;18.50;44.94
77165;BME280;66140;50.280;18.660;2023-04-24T12:34:52;97812.13;;;18.47;45.91
77165;BME280;66140;50.280;18.660;2023-04-24T12:37:32;97825.69;;;18.53;45.88
77165;BME280;66140;50.280;18.660;2023-04-24T12:42:54;97809.59;;;18.76;44.75
77165;BME280;66140;50.280;18.660;2023-04-24T12:45:20;97807.06;;;18.97;44.66
77165;BME280;66140;50.280;18.660;2023-04-24T12:47:48;97807.56;;;19.30;45.00
77165;BME280;66140;50.280;18.660;2023-04-24T12:50:14;97826.72;;;19.65;44.05
77165;BME280;66140;50.280;18.660;2023-04-24T12:52:41;97801.63;;;19.79;43.65
77165;BME280;66140;50.280;18.660;2023-04-24T12:55:07;97802.94;;;19.83;43.89
77165;BME280;66140;50.280;18.660;2023-04-24T12:57:35;97816.84;;;19.86;43.67
77165;BME280;66140;50.280;18.660;2023-04-24T13:00:01;97810.38;;;19.81;43.76
77165;BME280;66140;50.280;18.660;2023-04-24T13:02:28;97810.00;;;19.69;43.69
77165;BME280;66140;50.280;18.660;2023-04-24T13:04:55;97802.88;;;19.61;44.12
77165;BME280;66140;50.280;18.660;2023-04-24T13:07:21;97805.03;;;19.51;45.27
77165;BME280;66140;50.280;18.660;2023-04-24T13:09:47;97799.78;;;19.35;46.68
77165;BME280;66140;50.280;18.660;2023-04-24T13:12:14;97805.69;;;19.16;45.58
77165;BME280;66140;50.280;18.660;2023-04-24T13:14:53;97805.47;;;19.03;46.09
77165;BME280;66140;50.280;18.660;2023-04-24T13:17:26;97791.66;;;18.91;46.40
77165;BME280;66140;50.280;18.660;2023-04-24T13:23:11;97791.88;;;18.67;47.52
77165;BME280;66140;50.280;18.660;2023-04-24T13:25:53;97795.09;;;18.62;47.43
77165;BME280;66140;50.280;18.660;2023-04-24T13:28:32;97793.16;;;18.48;47.36
77165;BME280;66140;50.280;18.660;2023-04-24T13:30:58;97802.91;;;18.49;48.04
77165;BME280;66140;50.280;18.660;2023-04-24T13:33:23;97795.19;;;18.46;48.74
77165;BME280;66140;50.280;18.660;2023-04-24T13:35:49;97792.88;;;18.43;48.23
77165;BME280;66140;50.280;18.660;2023-04-24T13:38:14;97785.53;;;18.37;47.97
77165;BME280;66140;50.280;18.660;2023-04-24T13:40:40;97792.94;;;18.35;48.19
77165;BME280;66140;50.280;18.660;2023-04-24T13:43:09;97786.41;;;18.29;48.49
77165;BME280;66140;50.280;18.660;2023-04-24T13:45:34;97780.56;;;18.26;49.27
77165;BME280;66140;50.280;18.660;2023-04-24T13:48:00;97784.25;;;18.25;49.92
77165;BME280;66140;50.280;18.660;2023-04-24T13:50:26;97790.47;;;18.25;49.47
77165;BME280;66140;50.280;18.660;2023-04-24T13:52:52;97780.88;;;18.00;49.58
77165;BME280;66140;50.280;18.660;2023-04-24T13:55:18;97790.31;;;17.96;50.29
77165;BME280;66140;50.280;18.660;2023-04-24T13:57:43;97780.44;;;17.88;50.28
77165;BME280;66140;50.280;18.660;2023-04-24T14:00:09;97781.69;;;17.78;51.01
77165;BME280;66140;50.280;18.660;2023-04-24T14:02:36;97777.41;;;17.52;52.48
77165;BME280;66140;50.280;18.660;2023-04-24T14:05:02;97783.66;;;17.37;52.21
77165;BME280;66140;50.280;18.660;2023-04-24T14:07:28;97786.34;;;17.29;54.04
77165;BME280;66140;50.280;18.660;2023-04-24T14:09:54;97779.69;;;17.24;53.32
77165;BME280;66140;50.280;18.660;2023-04-24T14:12:20;97782.34;;;17.24;54.26
77165;BME280;66140;50.280;18.660;2023-04-24T14:14:46;97769.47;;;17.20;54.66
77165;BME280;66140;50.280;18.660;2023-04-24T14:17:19;97763.97;;;17.13;55.27
77165;BME280;66140;50.280;18.660;2023-04-24T14:19:44;97766.34;;;16.92;55.32
77165;BME280;66140;50.280;18.660;2023-04-24T14:22:10;97764.03;;;16.89;54.86
77165;BME280;66140;50.280;18.660;2023-04-24T14:24:38;97783.44;;;16.91;54.91
77165;BME280;66140;50.280;18.660;2023-04-24T14:27:04;97769.88;;;16.84;54.83
77165;BME280;66140;50.280;18.660;2023-04-24T14:29:30;97772.91;;;16.81;55.78
77165;BME280;66140;50.280;18.660;2023-04-24T14:31:55;97778.75;;;16.85;55.73
77165;BME280;66140;50.280;18.660;2023-04-24T14:34:21;97773.75;;;16.82;56.52
77165;BME280;66140;50.280;18.660;2023-04-24T14:36:46;97771.06;;;16.74;56.56
77165;BME280;66140;50.280;18.660;2023-04-24T14:39:11;97774.09;;;16.63;57.76
77165;BME280;66140;50.280;18.660;2023-04-24T14:41:37;97771.06;;;16.58;58.06
77165;BME280;66140;50.280;18.660;2023-04-24T14:44:04;97766.19;;;16.45;57.70
77165;BME280;66140;50.280;18.660;2023-04-24T14:46:30;97777.56;;;16.47;57.47
77165;BME280;66140;50.280;18.660;2023-04-24T14:48:56;97768.03;;;16.36;57.16
77165;BME280;66140;50.280;18.660;2023-04-24T14:51:23;97770.38;;;16.31;57.40
77165;BME280;66140;50.280;18.660;2023-04-24T14:53:48;97779.06;;;16.33;57.66
77165;BME280;66140;50.280;18.660;2023-04-24T14:56:15;97766.53;;;16.26;57.18
77165;BME280;66140;50.280;18.660;2023-04-24T14:58:40;97767.00;;;16.21;57.42
77165;BME280;66140;50.280;18.660;2023-04-24T15:01:06;97778.72;;;16.20;57.45
77165;BME280;66140;50.280;18.660;2023-04-24T15:03:31;97773.34;;;16.20;57.85
77165;BME280;66140;50.280;18.660;2023-04-24T15:05:57;97777.72;;;16.21;57.93
77165;BME280;66140;50.280;18.660;2023-04-24T15:08:22;97765.00;;;16.15;57.30
77165;BME280;66140;50.280;18.660;2023-04-24T15:10:48;97775.38;;;16.18;57.47
77165;BME280;66140;50.280;18.660;2023-04-24T15:13:13;97768.66;;;16.14;58.75
77165;BME280;66140;50.280;18.660;2023-04-24T15:15:39;97767.16;;;16.03;58.18
77165;BME280;66140;50.280;18.660;2023-04-24T15:18:05;97769.81;;;15.95;58.97
77165;BME280;66140;50.280;18.660;2023-04-24T15:20:31;97770.28;;;15.83;59.05
77165;BME280;66140;50.280;18.660;2023-04-24T15:22:56;97770.59;;;15.72;59.33
77165;BME280;66140;50.280;18.660;2023-04-24T15:25:23;97765.56;;;15.69;59.80
77165;BME280;66140;50.280;18.660;2023-04-24T15:27:49;97778.28;;;15.67;59.94
77165;BME280;66140;50.280;18.660;2023-04-24T15:30:15;97771.19;;;15.57;60.48
77165;BME280;66140;50.280;18.660;2023-04-24T15:32:40;97758.06;;;15.38;60.87
77165;BME280;66140;50.280;18.660;2023-04-24T15:35:07;97776.56;;;15.32;61.30
77165;BME280;66140;50.280;18.660;2023-04-24T15:37:36;97778.38;;;15.23;62.06
77165;BME280;66140;50.280;18.660;2023-04-24T15:40:01;97783.88;;;15.21;62.37
77165;BME280;66140;50.280;18.660;2023-04-24T15:42:30;97794.41;;;15.23;63.12
77165;BME280;66140;50.280;18.660;2023-04-24T15:44:55;97782.00;;;15.14;63.33
77165;BME280;66140;50.280;18.660;2023-04-24T15:47:20;97784.97;;;15.11;63.60
77165;BME280;66140;50.280;18.660;2023-04-24T15:49:46;97793.69;;;15.13;63.93
77165;BME280;66140;50.280;18.660;2023-04-24T15:52:11;97789.81;;;15.07;64.41
77165;BME280;66140;50.280;18.660;2023-04-24T15:54:38;97791.59;;;14.99;65.80
77165;BME280;66140;50.280;18.660;2023-04-24T15:57:05;97786.22;;;14.91;66.61
77165;BME280;66140;50.280;18.660;2023-04-24T15:59:31;97792.00;;;14.86;66.92
77165;BME280;66140;50.280;18.660;2023-04-24T16:01:56;97800.00;;;14.86;68.00
77165;BME280;66140;50.280;18.660;2023-04-24T16:04:22;97775.56;;;14.73;67.91
77165;BME280;66140;50.280;18.660;2023-04-24T16:06:47;97795.06;;;14.73;68.46
77165;BME280;66140;50.280;18.660;2023-04-24T16:09:23;97797.25;;;14.70;70.08
77165;BME280;66140;50.280;18.660;2023-04-24T16:11:49;97793.81;;;14.60;73.37
77165;BME280;66140;50.280;18.660;2023-04-24T16:14:14;97802.66;;;14.60;73.67
77165;BME280;66140;50.280;18.660;2023-04-24T16:16:40;97801.44;;;14.37;76.41
77165;BME280;66140;50.280;18.660;2023-04-24T16:19:06;97799.63;;;14.20;76.38
77165;BME280;66140;50.280;18.660;2023-04-24T16:21:33;97807.81;;;14.09;76.40
77165;BME280;66140;50.280;18.660;2023-04-24T16:23:58;97794.94;;;13.86;77.23
77165;BME280;66140;50.280;18.660;2023-04-24T16:26:25;97811.22;;;13.83;77.41
77165;BME280;66140;50.280;18.660;2023-04-24T16:28:52;97805.50;;;13.78;78.39
77165;BME280;66140;50.280;18.660;2023-04-24T16:31:17;97793.25;;;13.58;77.35
77165;BME280;66140;50.280;18.660;2023-04-24T16:33:43;97797.63;;;13.59;77.65
77165;BME280;66140;50.280;18.660;2023-04-24T16:36:09;97799.44;;;13.58;76.91
77165;BME280;66140;50.280;18.660;2023-04-24T16:38:35;97799.19;;;13.52;77.43
77165;BME280;66140;50.280;18.660;2023-04-24T16:41:00;97787.75;;;13.42;77.55
77165;BME280;66140;50.280;18.660;2023-04-24T16:43:29;97796.97;;;13.47;77.98
77165;BME280;66140;50.280;18.660;2023-04-24T16:45:55;97794.16;;;13.49;77.57
77165;BME280;66140;50.280;18.660;2023-04-24T16:48:21;97783.41;;;13.41;79.32
77165;BME280;66140;50.280;18.660;2023-04-24T16:50:46;97804.13;;;13.47;79.04
77165;BME280;66140;50.280;18.660;2023-04-24T16:53:12;97797.97;;;13.46;81.12
77165;BME280;66140;50.280;18.660;2023-04-24T16:55:45;97782.03;;;13.37;81.06
77165;BME280;66140;50.280;18.660;2023-04-24T16:58:24;97794.25;;;13.30;81.21
77165;BME280;66140;50.280;18.660;2023-04-24T17:00:54;97794.53;;;13.27;83.19
77165;BME280;66140;50.280;18.660;2023-04-24T17:03:20;97786.75;;;13.15;83.18
77165;BME280;66140;50.280;18.660;2023-04-24T17:05:45;97788.13;;;13.10;83.10
77165;BME280;66140;50.280;18.660;2023-04-24T17:08:29;97786.31;;;13.10;83.46
77165;BME280;66140;50.280;18.660;2023-04-24T17:10:57;97788.69;;;13.13;84.01